createdAt,value
2023-12-31T00:01:00.830Z,15.30
2023-12-31T00:03:54.160Z,14.70
2023-12-31T00:06:27.245Z,13.90
2023-12-31T00:09:00.348Z,13.30
2023-12-31T00:11:33.528Z,13.00
2023-12-31T00:14:06.869Z,13.30
2023-12-31T00:16:40.469Z,12.00
2023-12-31T00:19:13.733Z,12.20
2023-12-31T00:21:47.837Z,10.80
2023-12-31T00:24:21.035Z,9.20
2023-12-31T00:26:54.240Z,10.30
2023-12-31T00:29:27.454Z,8.20
2023-12-31T00:32:00.623Z,8.10
2023-12-31T00:34:33.771Z,7.50
2023-12-31T00:37:07.431Z,6.50
2023-12-31T00:39:40.758Z,7.00
2023-12-31T00:42:13.873Z,8.20
2023-12-31T00:44:47.082Z,7.20
2023-12-31T00:47:20.321Z,6.80
2023-12-31T00:49:53.488Z,7.00
2023-12-31T00:52:26.727Z,6.50
2023-12-31T00:54:59.870Z,7.10
2023-12-31T00:57:33.063Z,7.60
2023-12-31T01:00:07.773Z,7.30
2023-12-31T01:02:41.003Z,7.80
2023-12-31T01:05:14.717Z,8.80
2023-12-31T01:07:48.131Z,11.80
2023-12-31T01:10:21.657Z,11.60
2023-12-31T01:12:55.485Z,12.00
2023-12-31T01:15:28.758Z,10.90
2023-12-31T01:18:02.012Z,11.20
2023-12-31T01:20:35.429Z,12.50
2023-12-31T01:23:08.926Z,11.10
2023-12-31T01:25:42.216Z,14.30
2023-12-31T01:28:15.580Z,10.70
2023-12-31T01:30:49.570Z,12.30
2023-12-31T01:33:22.797Z,12.40
2023-12-31T01:35:56.543Z,12.50
2023-12-31T01:38:29.746Z,13.10
2023-12-31T01:41:08.472Z,13.60
2023-12-31T01:43:41.898Z,13.00
2023-12-31T01:46:29.588Z,12.80
2023-12-31T01:49:04.409Z,13.40
2023-12-31T01:51:38.049Z,12.60
2023-12-31T01:54:11.648Z,11.60
2023-12-31T01:56:48.304Z,12.20
2023-12-31T01:59:22.938Z,13.60
2023-12-31T02:01:57.888Z,16.10
2023-12-31T02:04:37.397Z,16.80
2023-12-31T02:07:10.643Z,19.60
2023-12-31T02:09:43.936Z,19.00
2023-12-31T02:12:17.204Z,19.60
2023-12-31T02:14:50.518Z,18.80
2023-12-31T02:17:23.758Z,17.50
2023-12-31T02:19:56.957Z,16.30
2023-12-31T02:22:32.623Z,17.20
2023-12-31T02:25:12.926Z,19.30
2023-12-31T02:27:46.144Z,19.90
2023-12-31T02:30:20.604Z,21.50
2023-12-31T02:32:53.911Z,22.00
2023-12-31T02:35:27.319Z,21.20
2023-12-31T02:38:00.596Z,22.40
2023-12-31T02:40:33.954Z,21.50
2023-12-31T02:43:07.221Z,17.90
2023-12-31T02:45:41.545Z,18.90
2023-12-31T02:48:14.969Z,19.40
2023-12-31T02:50:48.264Z,19.00
2023-12-31T02:53:21.478Z,15.50
2023-12-31T02:55:54.591Z,16.70
2023-12-31T02:58:27.786Z,14.90
2023-12-31T03:01:03.310Z,14.80
2023-12-31T03:03:36.480Z,13.50
2023-12-31T03:06:09.906Z,14.30
2023-12-31T03:08:43.147Z,14.70
2023-12-31T03:11:16.340Z,14.50
2023-12-31T03:13:49.602Z,16.20
2023-12-31T03:16:25.979Z,14.00
2023-12-31T03:18:59.625Z,13.80
2023-12-31T03:21:32.776Z,14.20
2023-12-31T03:24:06.641Z,13.90
2023-12-31T03:26:40.201Z,14.40
2023-12-31T03:29:13.435Z,12.00
2023-12-31T03:31:46.768Z,11.70
2023-12-31T03:34:19.981Z,12.10
2023-12-31T03:36:53.136Z,11.90
2023-12-31T03:39:26.234Z,10.10
2023-12-31T03:41:59.436Z,9.70
2023-12-31T03:44:32.622Z,9.50
2023-12-31T03:47:06.248Z,8.30
2023-12-31T03:49:39.382Z,8.00
2023-12-31T03:52:12.683Z,8.00
2023-12-31T03:54:46.259Z,8.10
2023-12-31T03:57:19.468Z,7.20
2023-12-31T03:59:52.737Z,7.40
2023-12-31T04:02:25.987Z,9.20
2023-12-31T04:04:59.301Z,8.90
2023-12-31T04:07:32.751Z,8.80
2023-12-31T04:10:07.371Z,7.80
2023-12-31T04:12:40.513Z,8.50
2023-12-31T04:15:13.918Z,9.00
2023-12-31T04:17:47.998Z,8.50
2023-12-31T04:20:21.819Z,8.80
2023-12-31T04:22:55.144Z,8.60
2023-12-31T04:25:28.408Z,8.10
2023-12-31T04:28:01.679Z,8.90
2023-12-31T04:30:35.063Z,9.50
2023-12-31T04:33:09.187Z,9.70
2023-12-31T04:35:50.882Z,9.10
2023-12-31T04:38:25.032Z,9.90
2023-12-31T04:40:58.204Z,11.30
2023-12-31T04:43:31.312Z,11.30
2023-12-31T04:46:09.626Z,11.70
2023-12-31T04:48:42.856Z,11.10
2023-12-31T04:51:26.536Z,12.40
2023-12-31T04:54:00.765Z,11.70
2023-12-31T04:56:33.923Z,9.60
2023-12-31T04:59:07.291Z,10.30
2023-12-31T05:01:40.496Z,9.50
2023-12-31T05:04:13.900Z,11.40
2023-12-31T05:06:47.057Z,11.10
2023-12-31T05:09:20.927Z,10.00
2023-12-31T05:11:54.126Z,9.50
2023-12-31T05:14:27.282Z,10.00
2023-12-31T05:17:00.497Z,11.10
2023-12-31T05:19:34.439Z,11.10
2023-12-31T05:22:07.973Z,10.30
2023-12-31T05:24:41.148Z,10.80
2023-12-31T05:27:14.272Z,10.70
2023-12-31T05:29:47.508Z,12.90
2023-12-31T05:32:20.837Z,12.60
2023-12-31T05:34:54.007Z,12.20
2023-12-31T05:37:27.185Z,13.30
2023-12-31T05:40:00.427Z,12.80
2023-12-31T05:42:33.807Z,13.00
2023-12-31T05:45:08.102Z,13.30
2023-12-31T05:47:46.143Z,13.50
2023-12-31T05:50:20.897Z,15.50
2023-12-31T05:52:54.800Z,17.30
2023-12-31T05:55:28.341Z,17.70
2023-12-31T05:58:01.513Z,14.20
2023-12-31T06:00:34.774Z,12.70
2023-12-31T06:03:08.834Z,13.50
2023-12-31T06:05:42.316Z,11.90
2023-12-31T06:08:15.589Z,12.20
2023-12-31T06:10:48.845Z,13.10
2023-12-31T06:13:22.221Z,14.50
2023-12-31T06:15:55.393Z,13.70
2023-12-31T06:18:28.676Z,14.50
2023-12-31T06:21:01.946Z,15.90
2023-12-31T06:23:35.176Z,15.90
2023-12-31T06:26:08.948Z,14.60
2023-12-31T06:28:42.341Z,16.80
2023-12-31T06:31:16.146Z,16.20
2023-12-31T06:33:49.730Z,14.50
2023-12-31T06:36:23.060Z,14.40
2023-12-31T06:38:56.239Z,16.40
2023-12-31T06:41:29.393Z,15.30
2023-12-31T06:44:02.520Z,15.80
2023-12-31T06:46:35.688Z,14.80
2023-12-31T06:49:09.028Z,16.00
2023-12-31T06:51:42.216Z,16.10
2023-12-31T06:54:15.737Z,17.20
2023-12-31T06:56:49.936Z,16.40
2023-12-31T06:59:23.551Z,18.70
2023-12-31T07:01:57.037Z,16.80
2023-12-31T07:04:30.173Z,18.00
2023-12-31T07:07:03.336Z,17.80
2023-12-31T07:09:36.472Z,18.40
2023-12-31T07:12:10.794Z,18.00
2023-12-31T07:14:44.522Z,17.90
2023-12-31T07:17:18.206Z,17.20
2023-12-31T07:19:51.464Z,15.60
2023-12-31T07:22:24.933Z,17.10
2023-12-31T07:24:58.548Z,19.10
2023-12-31T07:27:32.846Z,20.00
2023-12-31T07:30:07.391Z,17.70
2023-12-31T07:32:40.765Z,19.90
2023-12-31T07:35:14.221Z,19.80
2023-12-31T07:37:49.081Z,21.40
2023-12-31T07:40:22.395Z,18.00
2023-12-31T07:42:55.652Z,18.50
2023-12-31T07:45:29.006Z,17.90
2023-12-31T07:48:02.740Z,18.60
2023-12-31T07:50:36.188Z,18.90
2023-12-31T07:53:10.605Z,19.70
2023-12-31T07:55:44.858Z,21.80
2023-12-31T07:58:18.214Z,18.50
2023-12-31T08:00:51.529Z,19.20
2023-12-31T08:03:24.641Z,19.80
2023-12-31T08:05:57.957Z,18.30
2023-12-31T08:08:31.100Z,19.80
2023-12-31T08:11:04.628Z,19.50
2023-12-31T08:13:37.969Z,18.10
2023-12-31T08:16:11.555Z,19.80
2023-12-31T08:18:45.463Z,18.00
2023-12-31T08:21:18.646Z,20.30
2023-12-31T08:23:51.878Z,18.70
2023-12-31T08:26:26.442Z,18.00
2023-12-31T08:29:00.695Z,17.70
2023-12-31T08:31:36.105Z,17.80
2023-12-31T08:34:11.942Z,18.00
2023-12-31T08:36:45.480Z,19.10
2023-12-31T08:39:18.614Z,20.00
2023-12-31T08:41:51.795Z,20.70
2023-12-31T08:44:24.971Z,22.40
2023-12-31T08:46:58.334Z,25.80
2023-12-31T08:49:31.514Z,27.80
2023-12-31T08:52:04.798Z,30.80
2023-12-31T08:54:38.031Z,33.50
2023-12-31T08:57:11.341Z,31.70
2023-12-31T08:59:44.531Z,30.40
2023-12-31T09:02:17.751Z,29.00
2023-12-31T09:04:50.952Z,25.10
2023-12-31T09:07:24.259Z,23.30
2023-12-31T09:09:57.788Z,18.70
2023-12-31T09:12:31.066Z,19.90
2023-12-31T09:15:05.670Z,19.20
2023-12-31T09:17:39.047Z,20.00
2023-12-31T09:20:13.815Z,19.60
2023-12-31T09:22:50.251Z,17.30
2023-12-31T09:25:24.318Z,16.90
2023-12-31T09:27:57.525Z,17.90
2023-12-31T09:30:32.546Z,19.30
2023-12-31T09:33:06.812Z,18.90
2023-12-31T09:35:40.458Z,20.50
2023-12-31T09:38:13.913Z,18.80
2023-12-31T09:40:48.104Z,19.40
2023-12-31T09:43:24.930Z,19.90
2023-12-31T09:45:59.649Z,26.50
2023-12-31T09:48:34.372Z,27.40
2023-12-31T09:51:08.103Z,24.40
2023-12-31T09:53:44.840Z,23.80
2023-12-31T09:56:21.884Z,20.60
2023-12-31T09:59:03.088Z,19.50
2023-12-31T10:01:43.582Z,20.40
2023-12-31T10:04:17.306Z,20.70
2023-12-31T10:06:51.939Z,18.70
2023-12-31T10:09:32.112Z,20.30
2023-12-31T10:12:07.319Z,20.20
2023-12-31T10:14:40.529Z,19.60
2023-12-31T10:17:16.070Z,21.10
2023-12-31T10:19:50.646Z,28.90
2023-12-31T10:22:26.233Z,30.10
2023-12-31T10:25:16.205Z,29.10
2023-12-31T10:27:50.356Z,19.60
2023-12-31T10:30:24.323Z,17.20
2023-12-31T10:33:11.721Z,16.50
2023-12-31T10:35:47.042Z,16.00
2023-12-31T10:38:20.341Z,15.40
2023-12-31T10:40:54.298Z,14.10
2023-12-31T10:43:30.046Z,16.40
2023-12-31T10:46:05.532Z,16.50
2023-12-31T10:48:43.683Z,18.00
2023-12-31T10:51:24.912Z,15.50
2023-12-31T10:54:06.660Z,13.30
2023-12-31T10:56:42.018Z,13.20
2023-12-31T10:59:18.375Z,12.80
2023-12-31T11:01:52.134Z,12.30
2023-12-31T11:04:29.031Z,12.70
2023-12-31T11:07:04.973Z,13.10
2023-12-31T11:09:39.450Z,13.10
2023-12-31T11:12:14.084Z,14.60
2023-12-31T11:14:52.045Z,12.60
2023-12-31T11:18:10.282Z,11.90
2023-12-31T11:21:11.039Z,14.10
2023-12-31T11:23:54.836Z,14.00
2023-12-31T11:26:30.316Z,14.10
2023-12-31T11:29:10.593Z,16.40
2023-12-31T11:31:48.114Z,16.60
2023-12-31T11:34:22.910Z,13.70
2023-12-31T11:37:03.114Z,15.20
2023-12-31T11:39:36.543Z,13.40
2023-12-31T11:42:16.839Z,13.70
2023-12-31T11:44:51.186Z,15.10
2023-12-31T11:47:28.065Z,13.90
2023-12-31T11:50:25.664Z,13.50
2023-12-31T11:53:00.451Z,13.30
2023-12-31T11:55:43.728Z,13.80
2023-12-31T11:58:16.853Z,13.50
2023-12-31T12:00:51.048Z,13.40
2023-12-31T12:03:24.466Z,12.70
2023-12-31T12:05:57.580Z,11.80
2023-12-31T12:08:31.184Z,11.80
2023-12-31T12:11:05.966Z,11.10
2023-12-31T12:13:39.250Z,11.30
2023-12-31T12:16:14.791Z,10.80
2023-12-31T12:18:48.119Z,11.30
2023-12-31T12:21:21.707Z,10.00
2023-12-31T12:23:55.367Z,9.80
2023-12-31T12:26:29.032Z,11.60
2023-12-31T12:29:04.019Z,10.40
2023-12-31T12:31:41.633Z,10.10
2023-12-31T12:34:16.993Z,10.30
2023-12-31T12:36:53.570Z,11.00
2023-12-31T12:39:26.756Z,10.40
2023-12-31T12:42:02.023Z,10.70
2023-12-31T12:44:39.998Z,10.10
2023-12-31T12:47:13.149Z,10.60
2023-12-31T12:49:46.356Z,10.80
2023-12-31T12:52:19.798Z,11.80
2023-12-31T12:54:53.121Z,12.00
2023-12-31T12:57:26.305Z,17.90
2023-12-31T13:00:01.661Z,16.50
2023-12-31T13:02:35.105Z,17.60
2023-12-31T13:05:09.205Z,15.70
2023-12-31T13:07:42.309Z,16.10
2023-12-31T13:10:15.686Z,16.90
2023-12-31T13:12:49.246Z,13.50
2023-12-31T13:15:22.348Z,14.80
2023-12-31T13:17:55.577Z,11.40
2023-12-31T13:20:28.855Z,9.30
2023-12-31T13:23:02.465Z,10.60
2023-12-31T13:25:36.412Z,13.00
2023-12-31T13:28:10.627Z,13.10
2023-12-31T13:30:44.153Z,13.90
2023-12-31T13:33:18.054Z,13.10
2023-12-31T13:35:51.239Z,14.90
2023-12-31T13:38:25.801Z,13.10
2023-12-31T13:40:59.327Z,12.10
2023-12-31T13:43:32.554Z,12.70
2023-12-31T13:46:05.977Z,12.10
2023-12-31T13:48:39.339Z,10.40
2023-12-31T13:51:13.092Z,9.90
2023-12-31T13:53:46.907Z,9.00
2023-12-31T13:56:20.185Z,10.40
2023-12-31T13:58:53.301Z,10.90
2023-12-31T14:01:26.642Z,11.60
2023-12-31T14:03:59.917Z,12.90
2023-12-31T14:06:33.226Z,11.40
2023-12-31T14:09:06.751Z,13.20
2023-12-31T14:11:40.014Z,13.30
2023-12-31T14:14:13.667Z,14.50
2023-12-31T14:16:46.911Z,15.10
2023-12-31T14:19:26.937Z,13.70
2023-12-31T14:22:05.845Z,13.80
2023-12-31T14:24:39.829Z,15.60
2023-12-31T14:27:12.974Z,18.10
2023-12-31T14:29:46.086Z,16.30
2023-12-31T14:32:21.496Z,18.20
2023-12-31T14:34:54.897Z,18.30
2023-12-31T14:37:29.243Z,19.40
2023-12-31T14:40:04.140Z,18.70
2023-12-31T14:42:37.450Z,22.00
2023-12-31T14:45:12.304Z,20.20
2023-12-31T14:47:45.605Z,20.70
2023-12-31T14:50:19.107Z,22.20
2023-12-31T14:52:52.722Z,21.30
2023-12-31T14:55:26.010Z,22.00
2023-12-31T14:58:00.910Z,25.00
2023-12-31T15:00:34.305Z,29.90
2023-12-31T15:03:08.649Z,30.80
2023-12-31T15:05:42.173Z,41.20
2023-12-31T15:08:17.671Z,52.70
2023-12-31T15:10:51.468Z,45.40
2023-12-31T15:13:24.799Z,36.10
2023-12-31T15:15:57.926Z,33.60
2023-12-31T15:18:31.115Z,38.40
2023-12-31T15:21:04.566Z,35.90
2023-12-31T15:23:37.906Z,36.10
2023-12-31T15:26:11.370Z,39.10
2023-12-31T15:28:44.751Z,26.80
2023-12-31T15:31:18.398Z,22.20
2023-12-31T15:33:52.055Z,19.10
2023-12-31T15:36:25.440Z,18.60
2023-12-31T15:38:58.568Z,20.30
2023-12-31T15:41:31.866Z,27.50
2023-12-31T15:44:05.165Z,33.70
2023-12-31T15:46:38.550Z,28.60
2023-12-31T15:49:11.954Z,23.00
2023-12-31T15:51:45.637Z,20.10
2023-12-31T15:54:19.228Z,22.30
2023-12-31T15:56:52.399Z,24.90
2023-12-31T15:59:25.586Z,23.40
2023-12-31T16:01:58.836Z,23.10
2023-12-31T16:04:32.214Z,22.80
2023-12-31T16:07:05.895Z,27.50
2023-12-31T16:09:39.099Z,23.70
2023-12-31T16:12:12.828Z,24.20
2023-12-31T16:14:46.008Z,24.40
2023-12-31T16:17:19.718Z,22.40
2023-12-31T16:19:53.715Z,23.00
2023-12-31T16:22:26.914Z,19.70
2023-12-31T16:25:00.170Z,21.00
2023-12-31T16:27:33.708Z,19.80
2023-12-31T16:30:10.184Z,20.80
2023-12-31T16:32:44.798Z,21.90
2023-12-31T16:35:18.356Z,22.40
2023-12-31T16:37:51.672Z,25.30
2023-12-31T16:40:25.526Z,25.60
2023-12-31T16:42:58.618Z,24.30
2023-12-31T16:45:31.694Z,25.80
2023-12-31T16:48:06.553Z,25.10
2023-12-31T16:50:39.967Z,25.40
2023-12-31T16:53:14.354Z,28.00
2023-12-31T16:55:47.788Z,24.10
2023-12-31T16:58:21.292Z,25.60
2023-12-31T17:00:55.806Z,25.00
2023-12-31T17:03:29.281Z,27.20
2023-12-31T17:06:04.213Z,27.40
2023-12-31T17:08:37.419Z,29.40
2023-12-31T17:11:10.745Z,28.50
2023-12-31T17:13:45.210Z,26.50
2023-12-31T17:16:18.404Z,29.40
2023-12-31T17:18:51.764Z,32.80
2023-12-31T17:21:25.055Z,29.60
2023-12-31T17:23:58.641Z,28.80
2023-12-31T17:26:31.833Z,30.60
2023-12-31T17:29:06.650Z,32.60
2023-12-31T17:31:40.978Z,31.20
2023-12-31T17:34:14.179Z,32.80
2023-12-31T17:36:47.368Z,30.70
2023-12-31T17:39:21.185Z,31.50
2023-12-31T17:41:54.390Z,30.70
2023-12-31T17:44:27.832Z,31.00
2023-12-31T17:47:03.048Z,33.90
2023-12-31T17:49:36.353Z,31.40
2023-12-31T17:52:10.368Z,33.10
2023-12-31T17:54:43.653Z,30.60
2023-12-31T17:57:16.915Z,28.20
2023-12-31T17:59:53.563Z,31.70
2023-12-31T18:02:26.880Z,29.10
2023-12-31T18:05:00.481Z,28.00
2023-12-31T18:07:33.784Z,31.50
2023-12-31T18:10:10.769Z,30.90
2023-12-31T18:12:46.505Z,32.30
2023-12-31T18:15:20.401Z,33.70
2023-12-31T18:17:55.191Z,33.90
2023-12-31T18:20:28.800Z,34.30
2023-12-31T18:23:02.136Z,37.10
2023-12-31T18:25:35.369Z,34.20
2023-12-31T18:28:09.545Z,37.60
2023-12-31T18:30:47.093Z,47.10
2023-12-31T18:33:21.334Z,48.50
2023-12-31T18:35:54.554Z,56.50
2023-12-31T18:38:27.753Z,67.00
2023-12-31T18:41:01.453Z,74.50
2023-12-31T18:43:34.789Z,67.90
2023-12-31T18:46:08.485Z,65.40
2023-12-31T18:48:42.621Z,54.40
2023-12-31T18:51:16.176Z,49.80
2023-12-31T18:53:49.344Z,43.40
2023-12-31T18:56:22.633Z,39.70
2023-12-31T18:58:55.970Z,42.30
2023-12-31T19:01:33.550Z,41.90
2023-12-31T19:04:10.663Z,38.40
2023-12-31T19:06:44.096Z,37.50
2023-12-31T19:09:17.782Z,36.50
2023-12-31T19:11:50.979Z,38.50
2023-12-31T19:14:24.320Z,37.00
2023-12-31T19:17:00.863Z,36.30
2023-12-31T19:19:37.349Z,37.60
2023-12-31T19:22:11.159Z,37.40
2023-12-31T19:24:44.960Z,36.70
2023-12-31T19:27:18.206Z,35.50
2023-12-31T19:29:51.474Z,37.10
2023-12-31T19:32:24.763Z,37.00
2023-12-31T19:34:57.940Z,41.10
2023-12-31T19:37:31.211Z,39.30
2023-12-31T19:40:05.382Z,41.50
2023-12-31T19:42:38.560Z,43.90
2023-12-31T19:45:14.177Z,43.70
2023-12-31T19:47:47.514Z,40.40
2023-12-31T19:50:20.990Z,43.00
2023-12-31T19:52:54.219Z,44.40
2023-12-31T19:55:27.586Z,42.20
2023-12-31T19:58:01.065Z,43.10
2023-12-31T20:00:34.426Z,41.00
2023-12-31T20:03:08.296Z,42.00
2023-12-31T20:05:42.587Z,43.30
2023-12-31T20:08:16.014Z,41.90
2023-12-31T20:10:49.261Z,40.10
2023-12-31T20:13:22.847Z,39.50
2023-12-31T20:15:56.525Z,42.70
2023-12-31T20:18:29.863Z,38.00
2023-12-31T20:21:03.974Z,38.90
2023-12-31T20:23:37.500Z,36.10
2023-12-31T20:26:10.667Z,39.40
2023-12-31T20:28:43.946Z,41.00
2023-12-31T20:31:17.173Z,39.60
2023-12-31T20:33:50.616Z,45.00
2023-12-31T20:36:24.511Z,41.60
2023-12-31T20:38:58.199Z,43.50
2023-12-31T20:41:31.369Z,43.30
2023-12-31T20:44:04.567Z,42.40
2023-12-31T20:46:37.973Z,39.30
2023-12-31T20:49:11.155Z,40.70
2023-12-31T20:51:44.355Z,35.00
2023-12-31T20:54:17.523Z,36.10
2023-12-31T20:56:51.314Z,35.80
2023-12-31T20:59:24.856Z,33.00
2023-12-31T21:01:57.967Z,32.30
2023-12-31T21:04:31.210Z,31.30
2023-12-31T21:07:05.979Z,32.10
2023-12-31T21:09:40.587Z,33.60
2023-12-31T21:12:13.970Z,35.40
2023-12-31T21:14:47.146Z,32.90
2023-12-31T21:17:21.242Z,31.80
2023-12-31T21:19:54.487Z,37.20
2023-12-31T21:22:27.731Z,33.60
2023-12-31T21:25:00.947Z,32.00
2023-12-31T21:27:34.243Z,31.30
2023-12-31T21:30:09.431Z,34.10
2023-12-31T21:32:43.772Z,38.90
2023-12-31T21:35:17.318Z,34.80
2023-12-31T21:37:50.570Z,34.00
2023-12-31T21:40:24.076Z,36.30
2023-12-31T21:42:59.355Z,34.30
2023-12-31T21:45:32.595Z,33.40
2023-12-31T21:48:06.842Z,31.50
2023-12-31T21:50:40.825Z,28.30
2023-12-31T21:53:14.959Z,29.50
2023-12-31T21:55:57.549Z,29.70
2023-12-31T21:58:41.024Z,26.70
2023-12-31T22:01:14.925Z,29.70
2023-12-31T22:03:48.208Z,28.40
2023-12-31T22:06:21.383Z,28.80
2023-12-31T22:08:54.551Z,30.40
2023-12-31T22:11:28.020Z,31.90
2023-12-31T22:14:01.213Z,30.50
2023-12-31T22:16:34.429Z,29.00
2023-12-31T22:19:07.841Z,29.30
2023-12-31T22:21:43.461Z,28.10
2023-12-31T22:24:16.930Z,27.80
2023-12-31T22:26:50.140Z,29.10
2023-12-31T22:29:23.512Z,27.70
2023-12-31T22:31:56.767Z,26.40
2023-12-31T22:34:34.508Z,28.40
2023-12-31T22:37:08.000Z,28.80
2023-12-31T22:39:41.719Z,28.10
2023-12-31T22:42:14.956Z,30.80
2023-12-31T22:44:48.079Z,29.40
2023-12-31T22:47:21.262Z,28.10
2023-12-31T22:49:54.521Z,30.50
2023-12-31T22:52:28.861Z,29.10
2023-12-31T22:55:02.011Z,28.40
2023-12-31T22:57:35.151Z,33.00
2023-12-31T23:00:13.977Z,28.90
2023-12-31T23:02:48.579Z,29.10
2023-12-31T23:05:22.656Z,32.90
2023-12-31T23:07:56.367Z,38.20
2023-12-31T23:10:30.661Z,34.20
2023-12-31T23:13:04.212Z,35.60
2023-12-31T23:15:37.445Z,31.30
2023-12-31T23:18:11.776Z,34.40
2023-12-31T23:20:45.216Z,38.60
2023-12-31T23:23:18.534Z,42.00
2023-12-31T23:25:51.758Z,42.40
2023-12-31T23:28:25.383Z,45.80
2023-12-31T23:30:58.612Z,46.80
2023-12-31T23:33:33.281Z,49.40
2023-12-31T23:36:08.388Z,47.10
2023-12-31T23:38:41.497Z,45.50
2023-12-31T23:41:14.825Z,46.80
2023-12-31T23:43:59.290Z,44.90
2023-12-31T23:46:35.991Z,29.40
2023-12-31T23:49:09.223Z,27.00
2023-12-31T23:51:42.465Z,24.60
2023-12-31T23:54:15.739Z,23.80
2023-12-31T23:56:48.876Z,21.60
2023-12-31T23:59:22.023Z,20.00
